Alpha, New Jersey
Current Conditions -  °F | °C
As of 7:51 PM on Friday 19 Dec 2014 (Local Time) from KABE Reporting Station
Overcast Overcast  
Wind Chill: 25°   Ceiling: 3200
Heat Index: 33°   Visibility: 10mi
Dew Point: 20°   Wind: 9mph
Humidity: 59%   Direction: 340°NNW
Pressure: 30.17"   Gusts: NA
Location:  40.7083°N, 75.1472°W
Report Text: KABE 200051Z 34008KT 10SM OVC032 01/M07 A3017 RMK AO2 SLP218 T00061067
Loading
Personal Weather Stations






























Interactive Weather Map New forecast layout! Learn more

10-Day Weather Forecast

Advertisements
Track Severe Weather on mobile